Fall Branch, Tennessee
Current Conditions -  °F | °C
As of 4:53 AM on Friday 21 Nov 2014 (Local Time) from KTRI Reporting Station
Clear Clear  
Wind Chill: 22°   Ceiling: Unl
Heat Index: 29°   Visibility: 10mi
Dew Point: 18°   Wind: 7mph
Humidity: 64%   Direction: 290°WNW
Pressure: 30.32"   Gusts: NA
Location:  36.42°N, 82.62°W
Report Text: KTRI 210953Z 29006KT 10SM CLR M02/M08 A3032 RMK AO2 SLP265 T10171078
Loading
Personal Weather Stations






























Interactive Weather Map New forecast layout! Learn more

10-Day Weather Forecast

Advertisements
Track Severe Weather on mobile